sensor_id;sensor_type;location;lat;lon;timestamp;P1;durP1;ratioP1;P2;durP2;ratioP2
77507;SDS011;66618;42.666;23.360;2023-02-13T00:01:08;69.80;;;26.58;;
77507;SDS011;66618;42.666;23.360;2023-02-13T00:03:34;79.90;;;27.90;;
77507;SDS011;66618;42.666;23.360;2023-02-13T00:05:59;70.75;;;26.75;;
77507;SDS011;66618;42.666;23.360;2023-02-13T00:08:24;65.05;;;25.33;;
77507;SDS011;66618;42.666;23.360;2023-02-13T00:10:50;66.07;;;25.35;;
77507;SDS011;66618;42.666;23.360;2023-02-13T00:13:15;71.13;;;26.42;;
77507;SDS011;66618;42.666;23.360;2023-02-13T00:15:41;67.32;;;25.50;;
77507;SDS011;66618;42.666;23.360;2023-02-13T00:18:06;76.65;;;26.83;;
77507;SDS011;66618;42.666;23.360;2023-02-13T00:20:31;64.70;;;25.25;;
77507;SDS011;66618;42.666;23.360;2023-02-13T00:22:57;71.32;;;26.48;;
77507;SDS011;66618;42.666;23.360;2023-02-13T00:25:23;60.38;;;24.70;;
77507;SDS011;66618;42.666;23.360;2023-02-13T00:27:52;66.35;;;24.58;;
77507;SDS011;66618;42.666;23.360;2023-02-13T00:30:18;70.13;;;24.15;;
77507;SDS011;66618;42.666;23.360;2023-02-13T00:32:46;60.95;;;23.38;;
77507;SDS011;66618;42.666;23.360;2023-02-13T00:35:12;62.35;;;24.30;;
77507;SDS011;66618;42.666;23.360;2023-02-13T00:37:37;57.67;;;23.80;;
77507;SDS011;66618;42.666;23.360;2023-02-13T00:40:03;83.80;;;27.98;;
77507;SDS011;66618;42.666;23.360;2023-02-13T00:42:28;71.15;;;25.52;;
77507;SDS011;66618;42.666;23.360;2023-02-13T00:44:54;67.22;;;26.08;;
77507;SDS011;66618;42.666;23.360;2023-02-13T00:47:19;62.80;;;25.23;;
77507;SDS011;66618;42.666;23.360;2023-02-13T00:49:45;67.43;;;25.45;;
77507;SDS011;66618;42.666;23.360;2023-02-13T00:52:10;63.72;;;24.40;;
77507;SDS011;66618;42.666;23.360;2023-02-13T00:54:36;72.40;;;25.05;;
77507;SDS011;66618;42.666;23.360;2023-02-13T00:57:01;68.65;;;25.63;;
77507;SDS011;66618;42.666;23.360;2023-02-13T00:59:27;65.30;;;24.20;;
77507;SDS011;66618;42.666;23.360;2023-02-13T01:01:52;67.60;;;26.15;;
77507;SDS011;66618;42.666;23.360;2023-02-13T01:04:18;67.18;;;24.23;;
77507;SDS011;66618;42.666;23.360;2023-02-13T01:06:43;68.40;;;24.30;;
77507;SDS011;66618;42.666;23.360;2023-02-13T01:09:08;62.42;;;22.95;;
77507;SDS011;66618;42.666;23.360;2023-02-13T01:11:34;58.53;;;24.20;;
77507;SDS011;66618;42.666;23.360;2023-02-13T01:13:59;63.60;;;24.90;;
77507;SDS011;66618;42.666;23.360;2023-02-13T01:16:25;73.00;;;26.20;;
77507;SDS011;66618;42.666;23.360;2023-02-13T01:18:50;56.08;;;23.85;;
77507;SDS011;66618;42.666;23.360;2023-02-13T01:21:16;73.43;;;25.83;;
77507;SDS011;66618;42.666;23.360;2023-02-13T01:23:44;69.20;;;26.75;;
77507;SDS011;66618;42.666;23.360;2023-02-13T01:26:12;65.03;;;25.33;;
77507;SDS011;66618;42.666;23.360;2023-02-13T01:28:43;64.85;;;25.25;;
77507;SDS011;66618;42.666;23.360;2023-02-13T01:31:08;72.88;;;25.23;;
77507;SDS011;66618;42.666;23.360;2023-02-13T01:33:34;64.03;;;24.02;;
77507;SDS011;66618;42.666;23.360;2023-02-13T01:36:04;62.85;;;24.98;;
77507;SDS011;66618;42.666;23.360;2023-02-13T01:38:31;63.17;;;24.98;;
77507;SDS011;66618;42.666;23.360;2023-02-13T01:40:56;63.75;;;24.27;;
77507;SDS011;66618;42.666;23.360;2023-02-13T01:43:21;65.30;;;23.85;;
77507;SDS011;66618;42.666;23.360;2023-02-13T01:45:47;63.88;;;24.40;;
77507;SDS011;66618;42.666;23.360;2023-02-13T01:48:20;62.00;;;23.38;;
77507;SDS011;66618;42.666;23.360;2023-02-13T01:50:49;59.90;;;25.05;;
77507;SDS011;66618;42.666;23.360;2023-02-13T01:58:35;56.35;;;23.27;;
77507;SDS011;66618;42.666;23.360;2023-02-13T02:01:02;59.13;;;24.38;;
77507;SDS011;66618;42.666;23.360;2023-02-13T02:03:37;62.10;;;23.75;;
77507;SDS011;66618;42.666;23.360;2023-02-13T02:06:10;63.38;;;23.52;;
77507;SDS011;66618;42.666;23.360;2023-02-13T02:08:38;63.10;;;24.23;;
77507;SDS011;66618;42.666;23.360;2023-02-13T02:11:06;59.67;;;23.52;;
77507;SDS011;66618;42.666;23.360;2023-02-13T02:13:37;60.20;;;23.73;;
77507;SDS011;66618;42.666;23.360;2023-02-13T02:16:03;60.10;;;21.77;;
77507;SDS011;66618;42.666;23.360;2023-02-13T02:18:28;59.28;;;23.13;;
77507;SDS011;66618;42.666;23.360;2023-02-13T02:27:17;61.17;;;23.60;;
77507;SDS011;66618;42.666;23.360;2023-02-13T02:35:33;54.60;;;22.05;;
77507;SDS011;66618;42.666;23.360;2023-02-13T02:38:24;60.33;;;24.27;;
77507;SDS011;66618;42.666;23.360;2023-02-13T02:51:31;64.40;;;24.13;;
77507;SDS011;66618;42.666;23.360;2023-02-13T02:54:16;72.75;;;23.90;;
77507;SDS011;66618;42.666;23.360;2023-02-13T02:57:18;62.33;;;24.05;;
77507;SDS011;66618;42.666;23.360;2023-02-13T02:59:46;60.90;;;22.52;;
77507;SDS011;66618;42.666;23.360;2023-02-13T03:02:31;59.33;;;22.02;;
77507;SDS011;66618;42.666;23.360;2023-02-13T03:05:26;57.38;;;23.60;;
77507;SDS011;66618;42.666;23.360;2023-02-13T03:08:13;65.35;;;23.92;;
77507;SDS011;66618;42.666;23.360;2023-02-13T03:10:38;66.35;;;21.90;;
77507;SDS011;66618;42.666;23.360;2023-02-13T03:13:43;63.78;;;22.98;;
77507;SDS011;66618;42.666;23.360;2023-02-13T03:16:14;56.08;;;22.90;;
77507;SDS011;66618;42.666;23.360;2023-02-13T03:19:00;56.55;;;23.17;;
77507;SDS011;66618;42.666;23.360;2023-02-13T03:27:33;83.50;;;31.20;;
77507;SDS011;66618;42.666;23.360;2023-02-13T03:30:37;102.95;;;39.70;;
77507;SDS011;66618;42.666;23.360;2023-02-13T03:47:48;115.90;;;43.75;;
77507;SDS011;66618;42.666;23.360;2023-02-13T03:50:15;95.75;;;35.63;;
77507;SDS011;66618;42.666;23.360;2023-02-13T03:52:47;93.15;;;38.42;;
77507;SDS011;66618;42.666;23.360;2023-02-13T03:55:27;110.00;;;43.40;;
77507;SDS011;66618;42.666;23.360;2023-02-13T03:58:16;83.45;;;34.85;;
77507;SDS011;66618;42.666;23.360;2023-02-13T04:01:03;95.50;;;38.47;;
77507;SDS011;66618;42.666;23.360;2023-02-13T04:03:33;97.55;;;38.40;;
77507;SDS011;66618;42.666;23.360;2023-02-13T04:06:06;116.47;;;44.75;;
77507;SDS011;66618;42.666;23.360;2023-02-13T04:08:35;90.60;;;35.72;;
77507;SDS011;66618;42.666;23.360;2023-02-13T04:11:09;92.72;;;33.75;;
77507;SDS011;66618;42.666;23.360;2023-02-13T04:13:46;107.70;;;42.90;;
77507;SDS011;66618;42.666;23.360;2023-02-13T04:18:42;92.72;;;35.35;;
77507;SDS011;66618;42.666;23.360;2023-02-13T04:21:09;115.55;;;45.22;;
77507;SDS011;66618;42.666;23.360;2023-02-13T04:23:34;108.07;;;42.25;;
77507;SDS011;66618;42.666;23.360;2023-02-13T04:26:07;90.53;;;36.60;;
77507;SDS011;66618;42.666;23.360;2023-02-13T04:28:33;117.85;;;46.10;;
77507;SDS011;66618;42.666;23.360;2023-02-13T04:30:58;112.78;;;43.83;;
77507;SDS011;66618;42.666;23.360;2023-02-13T04:33:24;106.22;;;40.03;;
77507;SDS011;66618;42.666;23.360;2023-02-13T04:35:50;111.90;;;42.83;;
77507;SDS011;66618;42.666;23.360;2023-02-13T04:38:15;76.50;;;32.47;;
77507;SDS011;66618;42.666;23.360;2023-02-13T04:40:41;91.28;;;35.10;;
77507;SDS011;66618;42.666;23.360;2023-02-13T04:43:06;93.50;;;37.30;;
77507;SDS011;66618;42.666;23.360;2023-02-13T04:45:31;105.57;;;41.47;;
77507;SDS011;66618;42.666;23.360;2023-02-13T04:47:57;101.40;;;42.13;;
77507;SDS011;66618;42.666;23.360;2023-02-13T04:50:24;99.80;;;38.95;;
77507;SDS011;66618;42.666;23.360;2023-02-13T04:52:53;61.65;;;28.50;;
77507;SDS011;66618;42.666;23.360;2023-02-13T04:55:19;92.32;;;38.88;;
77507;SDS011;66618;42.666;23.360;2023-02-13T04:57:45;100.43;;;39.92;;
77507;SDS011;66618;42.666;23.360;2023-02-13T05:00:12;93.38;;;36.03;;
77507;SDS011;66618;42.666;23.360;2023-02-13T05:02:39;84.40;;;34.33;;
77507;SDS011;66618;42.666;23.360;2023-02-13T05:05:04;81.75;;;36.30;;
77507;SDS011;66618;42.666;23.360;2023-02-13T05:07:30;77.78;;;33.03;;
77507;SDS011;66618;42.666;23.360;2023-02-13T05:09:55;121.40;;;48.17;;
77507;SDS011;66618;42.666;23.360;2023-02-13T05:12:21;110.13;;;42.70;;
77507;SDS011;66618;42.666;23.360;2023-02-13T05:14:47;86.03;;;34.90;;
77507;SDS011;66618;42.666;23.360;2023-02-13T05:17:12;88.68;;;34.35;;
77507;SDS011;66618;42.666;23.360;2023-02-13T05:19:37;80.13;;;31.67;;
77507;SDS011;66618;42.666;23.360;2023-02-13T05:22:03;78.70;;;29.85;;
77507;SDS011;66618;42.666;23.360;2023-02-13T05:24:46;106.00;;;41.63;;
77507;SDS011;66618;42.666;23.360;2023-02-13T05:27:12;74.53;;;28.75;;
77507;SDS011;66618;42.666;23.360;2023-02-13T05:29:37;84.85;;;33.40;;
77507;SDS011;66618;42.666;23.360;2023-02-13T05:32:03;83.20;;;30.15;;
77507;SDS011;66618;42.666;23.360;2023-02-13T05:34:28;92.22;;;36.55;;
77507;SDS011;66618;42.666;23.360;2023-02-13T05:36:54;74.97;;;30.73;;
77507;SDS011;66618;42.666;23.360;2023-02-13T05:39:19;75.78;;;27.38;;
77507;SDS011;66618;42.666;23.360;2023-02-13T05:41:45;70.53;;;28.83;;
77507;SDS011;66618;42.666;23.360;2023-02-13T05:44:11;85.00;;;31.50;;
77507;SDS011;66618;42.666;23.360;2023-02-13T05:46:38;79.15;;;32.60;;
77507;SDS011;66618;42.666;23.360;2023-02-13T05:49:04;72.13;;;28.58;;
77507;SDS011;66618;42.666;23.360;2023-02-13T05:51:30;70.82;;;30.73;;
77507;SDS011;66618;42.666;23.360;2023-02-13T05:53:55;75.10;;;29.77;;
77507;SDS011;66618;42.666;23.360;2023-02-13T05:56:21;83.70;;;35.10;;
77507;SDS011;66618;42.666;23.360;2023-02-13T05:58:46;69.90;;;29.70;;
77507;SDS011;66618;42.666;23.360;2023-02-13T06:01:15;86.50;;;33.72;;
77507;SDS011;66618;42.666;23.360;2023-02-13T06:03:40;103.90;;;39.17;;
77507;SDS011;66618;42.666;23.360;2023-02-13T06:06:06;82.68;;;31.48;;
77507;SDS011;66618;42.666;23.360;2023-02-13T06:08:31;91.00;;;34.13;;
77507;SDS011;66618;42.666;23.360;2023-02-13T06:10:57;84.90;;;33.13;;
77507;SDS011;66618;42.666;23.360;2023-02-13T06:13:22;81.07;;;33.08;;
77507;SDS011;66618;42.666;23.360;2023-02-13T06:15:48;76.07;;;32.58;;
77507;SDS011;66618;42.666;23.360;2023-02-13T06:18:14;85.32;;;31.80;;
77507;SDS011;66618;42.666;23.360;2023-02-13T06:20:40;81.90;;;33.78;;
77507;SDS011;66618;42.666;23.360;2023-02-13T06:23:05;80.97;;;30.33;;
77507;SDS011;66618;42.666;23.360;2023-02-13T06:25:31;75.85;;;29.15;;
77507;SDS011;66618;42.666;23.360;2023-02-13T06:27:56;86.95;;;34.00;;
77507;SDS011;66618;42.666;23.360;2023-02-13T06:30:22;78.22;;;31.65;;
77507;SDS011;66618;42.666;23.360;2023-02-13T06:32:47;76.30;;;29.20;;
77507;SDS011;66618;42.666;23.360;2023-02-13T06:35:13;79.55;;;30.67;;
77507;SDS011;66618;42.666;23.360;2023-02-13T06:37:39;80.07;;;32.67;;
77507;SDS011;66618;42.666;23.360;2023-02-13T06:40:08;74.22;;;30.65;;
77507;SDS011;66618;42.666;23.360;2023-02-13T06:42:35;72.13;;;30.85;;
77507;SDS011;66618;42.666;23.360;2023-02-13T06:45:01;74.13;;;30.70;;
77507;SDS011;66618;42.666;23.360;2023-02-13T06:47:27;73.82;;;29.92;;
77507;SDS011;66618;42.666;23.360;2023-02-13T06:49:52;68.53;;;27.73;;
77507;SDS011;66618;42.666;23.360;2023-02-13T06:52:18;85.25;;;34.13;;
77507;SDS011;66618;42.666;23.360;2023-02-13T06:54:43;59.47;;;24.40;;
77507;SDS011;66618;42.666;23.360;2023-02-13T06:57:09;58.95;;;26.00;;
77507;SDS011;66618;42.666;23.360;2023-02-13T06:59:34;65.88;;;26.13;;
77507;SDS011;66618;42.666;23.360;2023-02-13T07:02:00;72.00;;;28.05;;
77507;SDS011;66618;42.666;23.360;2023-02-13T07:04:26;65.30;;;25.73;;
77507;SDS011;66618;42.666;23.360;2023-02-13T07:06:55;72.22;;;30.02;;
77507;SDS011;66618;42.666;23.360;2023-02-13T07:09:21;66.90;;;26.67;;
77507;SDS011;66618;42.666;23.360;2023-02-13T07:11:47;68.43;;;29.85;;
77507;SDS011;66618;42.666;23.360;2023-02-13T07:14:13;58.50;;;23.08;;
77507;SDS011;66618;42.666;23.360;2023-02-13T07:16:38;68.30;;;25.88;;
77507;SDS011;66618;42.666;23.360;2023-02-13T07:19:03;68.18;;;26.98;;
77507;SDS011;66618;42.666;23.360;2023-02-13T07:21:29;59.53;;;24.45;;
77507;SDS011;66618;42.666;23.360;2023-02-13T07:23:54;71.60;;;27.83;;
77507;SDS011;66618;42.666;23.360;2023-02-13T07:26:20;58.20;;;25.27;;
77507;SDS011;66618;42.666;23.360;2023-02-13T07:28:45;71.05;;;30.67;;
77507;SDS011;66618;42.666;23.360;2023-02-13T07:31:10;59.85;;;25.48;;
77507;SDS011;66618;42.666;23.360;2023-02-13T07:33:36;68.93;;;29.30;;
77507;SDS011;66618;42.666;23.360;2023-02-13T07:36:01;64.13;;;28.55;;
77507;SDS011;66618;42.666;23.360;2023-02-13T07:38:28;64.82;;;25.50;;
77507;SDS011;66618;42.666;23.360;2023-02-13T07:40:54;70.07;;;28.13;;
77507;SDS011;66618;42.666;23.360;2023-02-13T07:43:22;67.32;;;29.20;;
77507;SDS011;66618;42.666;23.360;2023-02-13T07:45:47;71.60;;;28.92;;
77507;SDS011;66618;42.666;23.360;2023-02-13T07:48:12;86.40;;;36.38;;
77507;SDS011;66618;42.666;23.360;2023-02-13T07:50:38;68.75;;;29.67;;
77507;SDS011;66618;42.666;23.360;2023-02-13T07:53:03;86.28;;;39.70;;
77507;SDS011;66618;42.666;23.360;2023-02-13T07:55:29;80.28;;;34.65;;
77507;SDS011;66618;42.666;23.360;2023-02-13T07:57:54;99.57;;;38.85;;
77507;SDS011;66618;42.666;23.360;2023-02-13T08:00:20;103.50;;;42.97;;
77507;SDS011;66618;42.666;23.360;2023-02-13T08:02:46;83.88;;;34.78;;
77507;SDS011;66618;42.666;23.360;2023-02-13T08:05:12;100.05;;;45.28;;
77507;SDS011;66618;42.666;23.360;2023-02-13T08:07:37;96.57;;;39.67;;
77507;SDS011;66618;42.666;23.360;2023-02-13T08:10:04;64.75;;;30.67;;
77507;SDS011;66618;42.666;23.360;2023-02-13T08:12:50;73.90;;;30.25;;
77507;SDS011;66618;42.666;23.360;2023-02-13T08:15:16;60.67;;;23.77;;
77507;SDS011;66618;42.666;23.360;2023-02-13T08:17:42;83.60;;;34.38;;
77507;SDS011;66618;42.666;23.360;2023-02-13T08:20:07;65.15;;;30.02;;
77507;SDS011;66618;42.666;23.360;2023-02-13T08:22:33;57.53;;;24.13;;
77507;SDS011;66618;42.666;23.360;2023-02-13T08:25:00;61.47;;;24.38;;
77507;SDS011;66618;42.666;23.360;2023-02-13T08:27:25;60.50;;;24.58;;
77507;SDS011;66618;42.666;23.360;2023-02-13T08:29:52;54.13;;;24.35;;
77507;SDS011;66618;42.666;23.360;2023-02-13T08:32:17;53.58;;;22.20;;
77507;SDS011;66618;42.666;23.360;2023-02-13T08:34:42;61.97;;;24.02;;
77507;SDS011;66618;42.666;23.360;2023-02-13T08:37:08;57.33;;;25.08;;
77507;SDS011;66618;42.666;23.360;2023-02-13T08:39:33;59.42;;;24.08;;
77507;SDS011;66618;42.666;23.360;2023-02-13T08:41:58;52.05;;;23.52;;
77507;SDS011;66618;42.666;23.360;2023-02-13T08:44:24;60.70;;;23.42;;
77507;SDS011;66618;42.666;23.360;2023-02-13T08:46:49;58.38;;;26.05;;
77507;SDS011;66618;42.666;23.360;2023-02-13T08:49:15;61.30;;;25.55;;
77507;SDS011;66618;42.666;23.360;2023-02-13T08:51:40;52.20;;;24.20;;
77507;SDS011;66618;42.666;23.360;2023-02-13T08:54:06;52.63;;;21.70;;
77507;SDS011;66618;42.666;23.360;2023-02-13T08:56:31;41.13;;;18.15;;
77507;SDS011;66618;42.666;23.360;2023-02-13T08:58:56;47.65;;;21.35;;
77507;SDS011;66618;42.666;23.360;2023-02-13T09:01:22;50.58;;;20.95;;
77507;SDS011;66618;42.666;23.360;2023-02-13T09:03:48;37.85;;;15.13;;
77507;SDS011;66618;42.666;23.360;2023-02-13T09:06:13;51.40;;;21.58;;
77507;SDS011;66618;42.666;23.360;2023-02-13T09:08:39;51.17;;;20.40;;
77507;SDS011;66618;42.666;23.360;2023-02-13T09:11:04;50.10;;;20.55;;
77507;SDS011;66618;42.666;23.360;2023-02-13T09:13:31;55.13;;;21.48;;
77507;SDS011;66618;42.666;23.360;2023-02-13T09:15:59;51.78;;;21.23;;
77507;SDS011;66618;42.666;23.360;2023-02-13T09:18:25;46.17;;;19.98;;
77507;SDS011;66618;42.666;23.360;2023-02-13T09:20:55;46.42;;;21.38;;
77507;SDS011;66618;42.666;23.360;2023-02-13T09:23:24;53.03;;;21.15;;
77507;SDS011;66618;42.666;23.360;2023-02-13T09:25:50;54.38;;;22.58;;
77507;SDS011;66618;42.666;23.360;2023-02-13T09:28:15;55.15;;;22.33;;
77507;SDS011;66618;42.666;23.360;2023-02-13T09:30:40;50.58;;;20.92;;
77507;SDS011;66618;42.666;23.360;2023-02-13T09:33:08;48.22;;;21.35;;
77507;SDS011;66618;42.666;23.360;2023-02-13T09:35:35;49.58;;;22.10;;
77507;SDS011;66618;42.666;23.360;2023-02-13T09:38:00;53.25;;;21.38;;
77507;SDS011;66618;42.666;23.360;2023-02-13T09:40:27;39.72;;;18.15;;
77507;SDS011;66618;42.666;23.360;2023-02-13T09:43:09;45.65;;;19.38;;
77507;SDS011;66618;42.666;23.360;2023-02-13T09:45:37;49.35;;;21.38;;
77507;SDS011;66618;42.666;23.360;2023-02-13T09:48:03;56.70;;;23.17;;
77507;SDS011;66618;42.666;23.360;2023-02-13T09:50:30;54.25;;;23.08;;
77507;SDS011;66618;42.666;23.360;2023-02-13T09:52:59;58.42;;;23.13;;
77507;SDS011;66618;42.666;23.360;2023-02-13T09:55:47;53.80;;;22.92;;
77507;SDS011;66618;42.666;23.360;2023-02-13T10:06:43;56.80;;;23.10;;
77507;SDS011;66618;42.666;23.360;2023-02-13T10:09:36;52.22;;;23.05;;
77507;SDS011;66618;42.666;23.360;2023-02-13T10:17:33;53.58;;;22.75;;
77507;SDS011;66618;42.666;23.360;2023-02-13T10:20:02;53.47;;;22.25;;
77507;SDS011;66618;42.666;23.360;2023-02-13T10:22:33;54.65;;;23.88;;
77507;SDS011;66618;42.666;23.360;2023-02-13T10:25:05;49.72;;;21.83;;
77507;SDS011;66618;42.666;23.360;2023-02-13T10:27:37;56.65;;;22.65;;
77507;SDS011;66618;42.666;23.360;2023-02-13T10:30:19;46.15;;;19.67;;
77507;SDS011;66618;42.666;23.360;2023-02-13T10:35:42;47.60;;;19.13;;
77507;SDS011;66618;42.666;23.360;2023-02-13T10:38:17;53.83;;;20.33;;
77507;SDS011;66618;42.666;23.360;2023-02-13T10:43:29;45.72;;;19.55;;
77507;SDS011;66618;42.666;23.360;2023-02-13T10:46:24;45.15;;;19.65;;
77507;SDS011;66618;42.666;23.360;2023-02-13T10:49:03;50.53;;;20.80;;
77507;SDS011;66618;42.666;23.360;2023-02-13T10:54:15;51.58;;;21.83;;
77507;SDS011;66618;42.666;23.360;2023-02-13T11:02:46;44.70;;;19.67;;
77507;SDS011;66618;42.666;23.360;2023-02-13T11:05:16;43.88;;;20.30;;
77507;SDS011;66618;42.666;23.360;2023-02-13T11:07:44;42.65;;;19.60;;
77507;SDS011;66618;42.666;23.360;2023-02-13T11:10:18;39.03;;;17.30;;
77507;SDS011;66618;42.666;23.360;2023-02-13T11:12:45;38.30;;;17.27;;
77507;SDS011;66618;42.666;23.360;2023-02-13T11:15:25;39.70;;;18.13;;
77507;SDS011;66618;42.666;23.360;2023-02-13T11:17:55;37.97;;;17.45;;
77507;SDS011;66618;42.666;23.360;2023-02-13T11:23:23;35.20;;;17.20;;
77507;SDS011;66618;42.666;23.360;2023-02-13T11:26:28;45.33;;;18.77;;
77507;SDS011;66618;42.666;23.360;2023-02-13T11:28:55;39.60;;;17.65;;
77507;SDS011;66618;42.666;23.360;2023-02-13T11:33:54;44.63;;;17.42;;
77507;SDS011;66618;42.666;23.360;2023-02-13T11:36:23;38.08;;;17.67;;
77507;SDS011;66618;42.666;23.360;2023-02-13T11:39:00;37.88;;;16.02;;
77507;SDS011;66618;42.666;23.360;2023-02-13T11:41:26;34.65;;;16.02;;
77507;SDS011;66618;42.666;23.360;2023-02-13T11:43:53;38.45;;;16.67;;
77507;SDS011;66618;42.666;23.360;2023-02-13T11:46:30;35.50;;;15.73;;
77507;SDS011;66618;42.666;23.360;2023-02-13T11:49:16;32.63;;;15.50;;
77507;SDS011;66618;42.666;23.360;2023-02-13T11:51:45;32.33;;;15.30;;
77507;SDS011;66618;42.666;23.360;2023-02-13T11:54:55;34.30;;;15.23;;
77507;SDS011;66618;42.666;23.360;2023-02-13T11:59:47;30.67;;;15.20;;
77507;SDS011;66618;42.666;23.360;2023-02-13T12:04:44;32.70;;;15.13;;
77507;SDS011;66618;42.666;23.360;2023-02-13T12:07:15;30.83;;;14.35;;
77507;SDS011;66618;42.666;23.360;2023-02-13T12:09:46;30.67;;;13.75;;
77507;SDS011;66618;42.666;23.360;2023-02-13T12:12:23;32.17;;;14.10;;
77507;SDS011;66618;42.666;23.360;2023-02-13T12:14:52;26.83;;;13.23;;
77507;SDS011;66618;42.666;23.360;2023-02-13T12:17:20;28.00;;;13.05;;
77507;SDS011;66618;42.666;23.360;2023-02-13T12:19:47;29.10;;;13.10;;
77507;SDS011;66618;42.666;23.360;2023-02-13T12:24:59;27.00;;;12.10;;
77507;SDS011;66618;42.666;23.360;2023-02-13T12:27:37;27.70;;;12.88;;
77507;SDS011;66618;42.666;23.360;2023-02-13T12:32:55;23.23;;;11.98;;
77507;SDS011;66618;42.666;23.360;2023-02-13T12:35:30;29.73;;;11.88;;
77507;SDS011;66618;42.666;23.360;2023-02-13T12:38:01;25.08;;;12.15;;
77507;SDS011;66618;42.666;23.360;2023-02-13T12:46:10;24.17;;;10.13;;
77507;SDS011;66618;42.666;23.360;2023-02-13T12:48:51;20.33;;;10.15;;
77507;SDS011;66618;42.666;23.360;2023-02-13T12:51:31;19.77;;;9.70;;
77507;SDS011;66618;42.666;23.360;2023-02-13T12:59:47;17.15;;;8.30;;
77507;SDS011;66618;42.666;23.360;2023-02-13T13:25:04;17.25;;;8.57;;
77507;SDS011;66618;42.666;23.360;2023-02-13T13:27:16;19.23;;;8.52;;
77507;SDS011;66618;42.666;23.360;2023-02-13T13:29:50;15.95;;;8.10;;
77507;SDS011;66618;42.666;23.360;2023-02-13T13:32:19;18.17;;;8.75;;
77507;SDS011;66618;42.666;23.360;2023-02-13T13:34:45;15.75;;;8.55;;
77507;SDS011;66618;42.666;23.360;2023-02-13T13:42:42;17.45;;;8.27;;
77507;SDS011;66618;42.666;23.360;2023-02-13T13:50:26;14.98;;;8.10;;
77507;SDS011;66618;42.666;23.360;2023-02-13T13:53:07;18.45;;;8.75;;
77507;SDS011;66618;42.666;23.360;2023-02-13T13:58:22;17.00;;;8.70;;
77507;SDS011;66618;42.666;23.360;2023-02-13T14:03:42;19.52;;;8.82;;
77507;SDS011;66618;42.666;23.360;2023-02-13T14:06:09;17.08;;;9.30;;
77507;SDS011;66618;42.666;23.360;2023-02-13T14:11:05;18.77;;;9.10;;
77507;SDS011;66618;42.666;23.360;2023-02-13T14:15:58;18.85;;;9.27;;
77507;SDS011;66618;42.666;23.360;2023-02-13T14:18:24;19.13;;;9.57;;
77507;SDS011;66618;42.666;23.360;2023-02-13T14:20:54;18.15;;;9.30;;
77507;SDS011;66618;42.666;23.360;2023-02-13T14:28:54;20.98;;;9.30;;
77507;SDS011;66618;42.666;23.360;2023-02-13T14:34:07;19.50;;;9.07;;
77507;SDS011;66618;42.666;23.360;2023-02-13T14:36:45;16.92;;;9.23;;
77507;SDS011;66618;42.666;23.360;2023-02-13T14:42:00;19.70;;;10.30;;
77507;SDS011;66618;42.666;23.360;2023-02-13T14:47:18;18.88;;;9.13;;
77507;SDS011;66618;42.666;23.360;2023-02-13T14:49:46;21.17;;;10.40;;
77507;SDS011;66618;42.666;23.360;2023-02-13T14:52:15;20.00;;;9.20;;
77507;SDS011;66618;42.666;23.360;2023-02-13T14:54:49;19.52;;;10.15;;
77507;SDS011;66618;42.666;23.360;2023-02-13T14:57:22;20.73;;;9.80;;
77507;SDS011;66618;42.666;23.360;2023-02-13T14:59:54;19.45;;;9.27;;
77507;SDS011;66618;42.666;23.360;2023-02-13T15:02:30;22.33;;;11.13;;
77507;SDS011;66618;42.666;23.360;2023-02-13T15:04:59;20.05;;;10.23;;
77507;SDS011;66618;42.666;23.360;2023-02-13T15:07:30;21.73;;;10.32;;
77507;SDS011;66618;42.666;23.360;2023-02-13T15:09:58;21.38;;;10.25;;
77507;SDS011;66618;42.666;23.360;2023-02-13T15:14:54;19.45;;;9.05;;
77507;SDS011;66618;42.666;23.360;2023-02-13T15:17:21;19.92;;;10.02;;
77507;SDS011;66618;42.666;23.360;2023-02-13T15:19:52;16.25;;;8.90;;
77507;SDS011;66618;42.666;23.360;2023-02-13T15:24:57;19.85;;;9.43;;
77507;SDS011;66618;42.666;23.360;2023-02-13T15:27:24;20.35;;;9.55;;
77507;SDS011;66618;42.666;23.360;2023-02-13T15:30:01;20.48;;;10.02;;
77507;SDS011;66618;42.666;23.360;2023-02-13T15:32:32;21.15;;;9.40;;
77507;SDS011;66618;42.666;23.360;2023-02-13T15:35:00;18.65;;;9.10;;
77507;SDS011;66618;42.666;23.360;2023-02-13T15:37:27;15.25;;;9.13;;
77507;SDS011;66618;42.666;23.360;2023-02-13T15:39:53;18.67;;;9.00;;
77507;SDS011;66618;42.666;23.360;2023-02-13T15:42:19;19.85;;;10.30;;
77507;SDS011;66618;42.666;23.360;2023-02-13T15:44:45;20.83;;;9.95;;
77507;SDS011;66618;42.666;23.360;2023-02-13T15:47:24;19.52;;;9.55;;
77507;SDS011;66618;42.666;23.360;2023-02-13T15:49:51;19.08;;;9.48;;
77507;SDS011;66618;42.666;23.360;2023-02-13T15:55:01;20.15;;;10.30;;
77507;SDS011;66618;42.666;23.360;2023-02-13T15:57:26;25.90;;;10.45;;
77507;SDS011;66618;42.666;23.360;2023-02-13T15:59:55;20.85;;;10.00;;
77507;SDS011;66618;42.666;23.360;2023-02-13T16:02:23;21.35;;;10.48;;
77507;SDS011;66618;42.666;23.360;2023-02-13T16:04:53;18.92;;;9.70;;
77507;SDS011;66618;42.666;23.360;2023-02-13T16:07:19;22.50;;;10.63;;
77507;SDS011;66618;42.666;23.360;2023-02-13T16:09:45;21.17;;;10.50;;
77507;SDS011;66618;42.666;23.360;2023-02-13T16:12:18;18.40;;;9.68;;
77507;SDS011;66618;42.666;23.360;2023-02-13T16:14:47;18.45;;;9.77;;
77507;SDS011;66618;42.666;23.360;2023-02-13T16:17:25;21.52;;;10.10;;
77507;SDS011;66618;42.666;23.360;2023-02-13T16:20:04;21.48;;;10.38;;
77507;SDS011;66618;42.666;23.360;2023-02-13T16:27:48;22.23;;;11.40;;
77507;SDS011;66618;42.666;23.360;2023-02-13T16:30:21;27.10;;;11.90;;
77507;SDS011;66618;42.666;23.360;2023-02-13T16:32:50;22.92;;;11.88;;
77507;SDS011;66618;42.666;23.360;2023-02-13T16:35:29;25.25;;;12.05;;
77507;SDS011;66618;42.666;23.360;2023-02-13T16:37:56;24.08;;;12.20;;
77507;SDS011;66618;42.666;23.360;2023-02-13T16:40:38;28.45;;;12.88;;
77507;SDS011;66618;42.666;23.360;2023-02-13T16:51:33;24.38;;;12.57;;
77507;SDS011;66618;42.666;23.360;2023-02-13T16:56:39;31.90;;;14.43;;
77507;SDS011;66618;42.666;23.360;2023-02-13T17:05:28;30.92;;;13.82;;
77507;SDS011;66618;42.666;23.360;2023-02-13T17:07:47;30.73;;;15.38;;
77507;SDS011;66618;42.666;23.360;2023-02-13T17:10:25;33.33;;;15.15;;
77507;SDS011;66618;42.666;23.360;2023-02-13T17:12:56;35.92;;;16.10;;
77507;SDS011;66618;42.666;23.360;2023-02-13T17:15:24;33.45;;;15.23;;
77507;SDS011;66618;42.666;23.360;2023-02-13T17:17:51;31.73;;;15.88;;
77507;SDS011;66618;42.666;23.360;2023-02-13T17:20:22;28.00;;;14.43;;
77507;SDS011;66618;42.666;23.360;2023-02-13T17:25:21;29.48;;;13.88;;
77507;SDS011;66618;42.666;23.360;2023-02-13T17:27:49;32.92;;;14.60;;
77507;SDS011;66618;42.666;23.360;2023-02-13T17:30:16;28.98;;;15.00;;
77507;SDS011;66618;42.666;23.360;2023-02-13T17:32:46;32.20;;;15.63;;
77507;SDS011;66618;42.666;23.360;2023-02-13T17:35:11;29.88;;;15.02;;
77507;SDS011;66618;42.666;23.360;2023-02-13T17:37:38;29.60;;;14.07;;